sensor_id;sensor_type;location;lat;lon;timestamp;pressure;altitude;pressure_sealevel;temperature;humidity
27729;BME280;15126;42.186;24.340;2022-11-02T00:00:24;99856.41;;;13.53;70.30
27729;BME280;15126;42.186;24.340;2022-11-02T00:02:52;99861.22;;;13.52;70.53
27729;BME280;15126;42.186;24.340;2022-11-02T00:05:19;99860.50;;;13.48;70.15
27729;BME280;15126;42.186;24.340;2022-11-02T00:07:49;99857.34;;;13.46;70.67
27729;BME280;15126;42.186;24.340;2022-11-02T00:10:16;99839.41;;;13.28;71.03
27729;BME280;15126;42.186;24.340;2022-11-02T00:12:45;99859.09;;;13.40;70.44
27729;BME280;15126;42.186;24.340;2022-11-02T00:15:12;99845.00;;;13.28;70.84
27729;BME280;15126;42.186;24.340;2022-11-02T00:17:40;99850.53;;;13.31;71.08
27729;BME280;15126;42.186;24.340;2022-11-02T00:20:10;99843.13;;;13.21;71.08
27729;BME280;15126;42.186;24.340;2022-11-02T00:22:37;99851.06;;;13.26;70.89
27729;BME280;15126;42.186;24.340;2022-11-02T00:25:06;99840.44;;;13.18;70.82
27729;BME280;15126;42.186;24.340;2022-11-02T00:27:34;99847.53;;;13.22;70.48
27729;BME280;15126;42.186;24.340;2022-11-02T00:30:05;99850.78;;;13.21;70.75
27729;BME280;15126;42.186;24.340;2022-11-02T00:32:32;99842.09;;;13.15;70.96
27729;BME280;15126;42.186;24.340;2022-11-02T00:34:59;99847.78;;;13.11;71.37
27729;BME280;15126;42.186;24.340;2022-11-02T00:37:26;99846.69;;;13.05;71.42
27729;BME280;15126;42.186;24.340;2022-11-02T00:39:52;99847.06;;;13.07;71.10
27729;BME280;15126;42.186;24.340;2022-11-02T00:42:19;99841.16;;;13.02;71.39
27729;BME280;15126;42.186;24.340;2022-11-02T00:44:46;99844.41;;;13.00;71.23
27729;BME280;15126;42.186;24.340;2022-11-02T00:47:14;99835.28;;;12.96;71.70
27729;BME280;15126;42.186;24.340;2022-11-02T00:49:41;99836.16;;;12.93;72.22
27729;BME280;15126;42.186;24.340;2022-11-02T00:52:08;99832.91;;;12.95;71.51
27729;BME280;15126;42.186;24.340;2022-11-02T00:54:34;99835.78;;;12.91;71.32
27729;BME280;15126;42.186;24.340;2022-11-02T00:57:01;99836.22;;;12.90;71.72
27729;BME280;15126;42.186;24.340;2022-11-02T00:59:28;99833.16;;;12.84;71.75
27729;BME280;15126;42.186;24.340;2022-11-02T01:01:55;99818.94;;;12.75;72.37
27729;BME280;15126;42.186;24.340;2022-11-02T01:04:23;99835.59;;;12.82;72.27
27729;BME280;15126;42.186;24.340;2022-11-02T01:06:50;99826.41;;;12.82;71.99
27729;BME280;15126;42.186;24.340;2022-11-02T01:09:17;99820.47;;;12.80;71.89
27729;BME280;15126;42.186;24.340;2022-11-02T01:11:44;99819.34;;;12.77;71.92
27729;BME280;15126;42.186;24.340;2022-11-02T01:14:11;99817.41;;;12.74;71.87
27729;BME280;15126;42.186;24.340;2022-11-02T01:16:38;99816.59;;;12.74;72.16
27729;BME280;15126;42.186;24.340;2022-11-02T01:19:06;99807.66;;;12.63;72.01
27729;BME280;15126;42.186;24.340;2022-11-02T01:21:34;99813.88;;;12.70;72.16
27729;BME280;15126;42.186;24.340;2022-11-02T01:24:01;99807.19;;;12.64;72.91
27729;BME280;15126;42.186;24.340;2022-11-02T01:26:28;99810.84;;;12.61;72.96
27729;BME280;15126;42.186;24.340;2022-11-02T01:28:55;99813.25;;;12.63;72.45
27729;BME280;15126;42.186;24.340;2022-11-02T01:31:21;99808.44;;;12.63;72.73
27729;BME280;15126;42.186;24.340;2022-11-02T01:33:48;99799.66;;;12.61;73.07
27729;BME280;15126;42.186;24.340;2022-11-02T01:36:16;99804.91;;;12.59;73.79
27729;BME280;15126;42.186;24.340;2022-11-02T01:38:47;99803.25;;;12.62;73.33
27729;BME280;15126;42.186;24.340;2022-11-02T01:41:14;99795.72;;;12.59;73.06
27729;BME280;15126;42.186;24.340;2022-11-02T01:43:41;99801.41;;;12.55;73.68
27729;BME280;15126;42.186;24.340;2022-11-02T01:46:14;99790.28;;;12.51;73.28
27729;BME280;15126;42.186;24.340;2022-11-02T01:48:45;99802.28;;;12.52;73.10
27729;BME280;15126;42.186;24.340;2022-11-02T01:51:15;99798.25;;;12.53;72.67
27729;BME280;15126;42.186;24.340;2022-11-02T01:53:47;99798.25;;;12.53;72.29
27729;BME280;15126;42.186;24.340;2022-11-02T01:56:17;99797.91;;;12.51;72.55
27729;BME280;15126;42.186;24.340;2022-11-02T01:58:50;99795.25;;;12.44;72.89
27729;BME280;15126;42.186;24.340;2022-11-02T02:01:20;99799.72;;;12.41;73.01
27729;BME280;15126;42.186;24.340;2022-11-02T02:03:47;99804.16;;;12.39;73.76
27729;BME280;15126;42.186;24.340;2022-11-02T02:06:15;99802.56;;;12.38;73.32
27729;BME280;15126;42.186;24.340;2022-11-02T02:08:47;99784.41;;;12.26;73.69
27729;BME280;15126;42.186;24.340;2022-11-02T02:11:27;99796.69;;;12.32;73.70
27729;BME280;15126;42.186;24.340;2022-11-02T02:13:57;99802.34;;;12.29;74.06
27729;BME280;15126;42.186;24.340;2022-11-02T02:16:35;99794.03;;;12.25;74.44
27729;BME280;15126;42.186;24.340;2022-11-02T02:19:17;99795.25;;;12.24;74.34
27729;BME280;15126;42.186;24.340;2022-11-02T02:21:54;99796.63;;;12.16;74.15
27729;BME280;15126;42.186;24.340;2022-11-02T02:24:42;99789.09;;;12.13;74.24
27729;BME280;15126;42.186;24.340;2022-11-02T02:27:15;99797.41;;;12.17;74.71
27729;BME280;15126;42.186;24.340;2022-11-02T02:29:53;99791.09;;;12.13;74.71
27729;BME280;15126;42.186;24.340;2022-11-02T02:32:30;99795.47;;;12.14;74.80
27729;BME280;15126;42.186;24.340;2022-11-02T02:35:06;99795.97;;;12.09;75.18
27729;BME280;15126;42.186;24.340;2022-11-02T02:37:40;99801.63;;;12.05;75.40
27729;BME280;15126;42.186;24.340;2022-11-02T02:40:12;99804.41;;;12.05;75.66
27729;BME280;15126;42.186;24.340;2022-11-02T02:42:45;99805.63;;;12.04;75.15
27729;BME280;15126;42.186;24.340;2022-11-02T02:45:18;99796.09;;;12.02;75.59
27729;BME280;15126;42.186;24.340;2022-11-02T02:47:48;99803.28;;;12.03;75.61
27729;BME280;15126;42.186;24.340;2022-11-02T02:50:21;99799.31;;;12.00;75.13
27729;BME280;15126;42.186;24.340;2022-11-02T02:52:52;99799.69;;;12.02;75.05
27729;BME280;15126;42.186;24.340;2022-11-02T02:55:23;99782.69;;;11.93;75.41
27729;BME280;15126;42.186;24.340;2022-11-02T02:57:53;99791.34;;;11.99;75.07
27729;BME280;15126;42.186;24.340;2022-11-02T03:00:24;99792.94;;;12.00;74.09
27729;BME280;15126;42.186;24.340;2022-11-02T03:02:51;99800.19;;;11.97;74.71
27729;BME280;15126;42.186;24.340;2022-11-02T03:05:29;99790.28;;;11.92;75.52
27729;BME280;15126;42.186;24.340;2022-11-02T03:08:02;99784.72;;;11.92;75.38
27729;BME280;15126;42.186;24.340;2022-11-02T03:10:34;99790.72;;;11.91;75.24
27729;BME280;15126;42.186;24.340;2022-11-02T03:13:17;99794.75;;;11.90;75.21
27729;BME280;15126;42.186;24.340;2022-11-02T03:15:52;99791.66;;;11.84;75.03
27729;BME280;15126;42.186;24.340;2022-11-02T03:18:30;99777.94;;;11.70;75.19
27729;BME280;15126;42.186;24.340;2022-11-02T03:21:05;99796.16;;;11.78;75.87
27729;BME280;15126;42.186;24.340;2022-11-02T03:23:38;99792.56;;;11.78;75.33
27729;BME280;15126;42.186;24.340;2022-11-02T03:26:10;99794.19;;;11.75;75.05
27729;BME280;15126;42.186;24.340;2022-11-02T03:28:46;99799.78;;;11.75;75.25
27729;BME280;15126;42.186;24.340;2022-11-02T03:31:25;99787.97;;;11.64;75.58
27729;BME280;15126;42.186;24.340;2022-11-02T03:33:59;99797.50;;;11.67;75.97
27729;BME280;15126;42.186;24.340;2022-11-02T03:36:31;99805.63;;;11.58;76.37
27729;BME280;15126;42.186;24.340;2022-11-02T03:39:03;99801.69;;;11.55;76.33
27729;BME280;15126;42.186;24.340;2022-11-02T03:41:33;99807.22;;;11.59;75.64
27729;BME280;15126;42.186;24.340;2022-11-02T03:44:05;99796.50;;;11.57;75.97
27729;BME280;15126;42.186;24.340;2022-11-02T03:46:36;99802.50;;;11.56;75.76
27729;BME280;15126;42.186;24.340;2022-11-02T03:49:05;99792.59;;;11.51;76.09
27729;BME280;15126;42.186;24.340;2022-11-02T03:51:36;99780.97;;;11.33;76.15
27729;BME280;15126;42.186;24.340;2022-11-02T03:54:07;99806.00;;;11.36;76.96
27729;BME280;15126;42.186;24.340;2022-11-02T03:56:39;99800.38;;;11.40;76.66
27729;BME280;15126;42.186;24.340;2022-11-02T03:59:07;99794.03;;;11.36;76.85
27729;BME280;15126;42.186;24.340;2022-11-02T04:01:39;99798.88;;;11.35;76.82
27729;BME280;15126;42.186;24.340;2022-11-02T04:04:07;99799.72;;;11.32;76.79
27729;BME280;15126;42.186;24.340;2022-11-02T04:06:36;99793.69;;;11.34;76.21
27729;BME280;15126;42.186;24.340;2022-11-02T04:09:04;99796.47;;;11.34;75.88
27729;BME280;15126;42.186;24.340;2022-11-02T04:11:31;99808.13;;;11.29;76.03
27729;BME280;15126;42.186;24.340;2022-11-02T04:14:16;99770.94;;;11.09;76.74
27729;BME280;15126;42.186;24.340;2022-11-02T04:17:04;99795.50;;;11.21;76.82
27729;BME280;15126;42.186;24.340;2022-11-02T04:19:49;99793.56;;;11.18;77.34
27729;BME280;15126;42.186;24.340;2022-11-02T04:22:16;99797.09;;;11.22;77.68
27729;BME280;15126;42.186;24.340;2022-11-02T04:25:00;99792.88;;;11.10;78.25
27729;BME280;15126;42.186;24.340;2022-11-02T04:27:47;99794.81;;;11.13;77.38
27729;BME280;15126;42.186;24.340;2022-11-02T04:30:15;99767.94;;;11.00;77.27
27729;BME280;15126;42.186;24.340;2022-11-02T04:32:45;99779.28;;;11.12;77.46
27729;BME280;15126;42.186;24.340;2022-11-02T04:35:30;99773.81;;;11.05;77.55
27729;BME280;15126;42.186;24.340;2022-11-02T04:37:58;99782.56;;;11.07;78.31
27729;BME280;15126;42.186;24.340;2022-11-02T04:40:42;99785.00;;;11.05;78.06
27729;BME280;15126;42.186;24.340;2022-11-02T04:43:09;99783.34;;;11.08;78.18
27729;BME280;15126;42.186;24.340;2022-11-02T04:45:36;99780.19;;;11.06;78.27
27729;BME280;15126;42.186;24.340;2022-11-02T04:48:06;99784.19;;;11.05;78.39
27729;BME280;15126;42.186;24.340;2022-11-02T04:50:34;99778.25;;;11.03;78.20
27729;BME280;15126;42.186;24.340;2022-11-02T04:53:03;99780.19;;;11.06;78.51
27729;BME280;15126;42.186;24.340;2022-11-02T04:55:32;99790.09;;;11.10;78.06
27729;BME280;15126;42.186;24.340;2022-11-02T04:57:58;99794.88;;;11.10;77.89
27729;BME280;15126;42.186;24.340;2022-11-02T05:00:25;99784.19;;;11.05;78.51
27729;BME280;15126;42.186;24.340;2022-11-02T05:02:52;99799.75;;;11.06;78.50
27729;BME280;15126;42.186;24.340;2022-11-02T05:05:20;99788.94;;;11.08;77.70
27729;BME280;15126;42.186;24.340;2022-11-02T05:07:47;99770.25;;;11.05;77.74
27729;BME280;15126;42.186;24.340;2022-11-02T05:10:14;99790.81;;;11.14;77.93
27729;BME280;15126;42.186;24.340;2022-11-02T05:12:41;99784.03;;;11.15;78.33
27729;BME280;15126;42.186;24.340;2022-11-02T05:15:09;99785.16;;;11.18;77.89
27729;BME280;15126;42.186;24.340;2022-11-02T05:17:36;99789.59;;;11.15;77.87
27729;BME280;15126;42.186;24.340;2022-11-02T05:20:03;99790.34;;;11.19;78.21
27729;BME280;15126;42.186;24.340;2022-11-02T05:22:31;99776.81;;;11.18;77.91
27729;BME280;15126;42.186;24.340;2022-11-02T05:24:58;99793.19;;;11.16;78.94
27729;BME280;15126;42.186;24.340;2022-11-02T05:27:25;99783.19;;;11.18;78.70
27729;BME280;15126;42.186;24.340;2022-11-02T05:29:52;99793.44;;;11.25;77.69
27729;BME280;15126;42.186;24.340;2022-11-02T05:32:19;99786.63;;;11.26;77.92
27729;BME280;15126;42.186;24.340;2022-11-02T05:34:46;99795.81;;;11.26;77.94
27729;BME280;15126;42.186;24.340;2022-11-02T05:37:12;99795.00;;;11.26;77.76
27729;BME280;15126;42.186;24.340;2022-11-02T05:39:41;99794.13;;;11.32;76.73
27729;BME280;15126;42.186;24.340;2022-11-02T05:42:07;99794.00;;;11.40;76.94
27729;BME280;15126;42.186;24.340;2022-11-02T05:44:34;99803.84;;;11.48;77.03
27729;BME280;15126;42.186;24.340;2022-11-02T05:47:02;99762.63;;;11.32;76.97
27729;BME280;15126;42.186;24.340;2022-11-02T05:49:29;99800.00;;;11.61;76.99
27729;BME280;15126;42.186;24.340;2022-11-02T05:51:56;99805.88;;;11.70;76.71
27729;BME280;15126;42.186;24.340;2022-11-02T05:54:22;99799.72;;;11.79;74.79
27729;BME280;15126;42.186;24.340;2022-11-02T05:56:51;99791.25;;;11.82;74.26
27729;BME280;15126;42.186;24.340;2022-11-02T05:59:18;99797.09;;;11.91;73.87
27729;BME280;15126;42.186;24.340;2022-11-02T06:01:45;99797.75;;;11.99;73.09
27729;BME280;15126;42.186;24.340;2022-11-02T06:04:11;99805.44;;;12.15;73.33
27729;BME280;15126;42.186;24.340;2022-11-02T06:06:38;99790.28;;;12.12;72.94
27729;BME280;15126;42.186;24.340;2022-11-02T06:09:05;99813.81;;;12.34;73.57
27729;BME280;15126;42.186;24.340;2022-11-02T06:11:32;99807.25;;;12.44;72.64
27729;BME280;15126;42.186;24.340;2022-11-02T06:14:00;99807.38;;;12.57;72.21
27729;BME280;15126;42.186;24.340;2022-11-02T06:16:30;99802.69;;;12.70;71.81
27729;BME280;15126;42.186;24.340;2022-11-02T06:18:56;99801.50;;;12.87;71.66
27729;BME280;15126;42.186;24.340;2022-11-02T06:21:23;99799.88;;;13.06;70.64
27729;BME280;15126;42.186;24.340;2022-11-02T06:23:50;99800.53;;;13.46;70.30
27729;BME280;15126;42.186;24.340;2022-11-02T06:26:17;99799.06;;;13.86;69.03
27729;BME280;15126;42.186;24.340;2022-11-02T06:28:44;99803.97;;;14.27;68.06
27729;BME280;15126;42.186;24.340;2022-11-02T06:31:12;99808.34;;;14.57;65.52
27729;BME280;15126;42.186;24.340;2022-11-02T06:33:41;99802.44;;;14.80;64.52
27729;BME280;15126;42.186;24.340;2022-11-02T06:36:08;99801.22;;;14.94;64.13
27729;BME280;15126;42.186;24.340;2022-11-02T06:38:35;99795.94;;;14.96;63.67
27729;BME280;15126;42.186;24.340;2022-11-02T06:41:04;99802.47;;;15.05;63.50
27729;BME280;15126;42.186;24.340;2022-11-02T06:43:31;99792.91;;;15.15;62.67
27729;BME280;15126;42.186;24.340;2022-11-02T06:45:58;99806.03;;;15.31;62.25
27729;BME280;15126;42.186;24.340;2022-11-02T06:48:27;99812.56;;;15.40;61.41
27729;BME280;15126;42.186;24.340;2022-11-02T06:50:53;99802.34;;;15.46;60.79
27729;BME280;15126;42.186;24.340;2022-11-02T06:53:20;99815.94;;;15.61;60.97
27729;BME280;15126;42.186;24.340;2022-11-02T06:55:51;99809.63;;;15.69;61.83
27729;BME280;15126;42.186;24.340;2022-11-02T06:58:18;99800.94;;;15.76;61.66
27729;BME280;15126;42.186;24.340;2022-11-02T07:00:45;99802.28;;;15.84;59.66
27729;BME280;15126;42.186;24.340;2022-11-02T07:03:12;99796.41;;;15.91;60.09
27729;BME280;15126;42.186;24.340;2022-11-02T07:05:41;99797.47;;;16.06;59.19
27729;BME280;15126;42.186;24.340;2022-11-02T07:08:08;99801.47;;;16.18;59.60
27729;BME280;15126;42.186;24.340;2022-11-02T07:10:35;99799.06;;;16.29;59.24
27729;BME280;15126;42.186;24.340;2022-11-02T07:13:01;99798.22;;;16.41;58.44
27729;BME280;15126;42.186;24.340;2022-11-02T07:15:28;99805.41;;;16.42;58.08
27729;BME280;15126;42.186;24.340;2022-11-02T07:17:55;99771.00;;;16.38;58.33
27729;BME280;15126;42.186;24.340;2022-11-02T07:20:22;99794.47;;;16.66;57.38
27729;BME280;15126;42.186;24.340;2022-11-02T07:22:54;99797.53;;;16.81;57.03
27729;BME280;15126;42.186;24.340;2022-11-02T07:25:22;99794.00;;;16.89;58.53
27729;BME280;15126;42.186;24.340;2022-11-02T07:27:49;99789.66;;;16.97;57.90
27729;BME280;15126;42.186;24.340;2022-11-02T07:30:16;99784.00;;;16.97;57.49
27729;BME280;15126;42.186;24.340;2022-11-02T07:32:44;99762.25;;;16.98;58.46
27729;BME280;15126;42.186;24.340;2022-11-02T07:35:12;99775.00;;;17.20;57.29
27729;BME280;15126;42.186;24.340;2022-11-02T07:37:39;99772.38;;;17.26;58.13
27729;BME280;15126;42.186;24.340;2022-11-02T07:40:10;99772.09;;;17.42;56.77
27729;BME280;15126;42.186;24.340;2022-11-02T07:42:42;99767.78;;;17.59;56.53
27729;BME280;15126;42.186;24.340;2022-11-02T07:45:10;99767.03;;;17.68;55.28
27729;BME280;15126;42.186;24.340;2022-11-02T07:47:40;99761.09;;;17.84;54.59
27729;BME280;15126;42.186;24.340;2022-11-02T07:50:07;99760.94;;;17.88;54.77
27729;BME280;15126;42.186;24.340;2022-11-02T07:52:34;99750.88;;;18.05;55.30
27729;BME280;15126;42.186;24.340;2022-11-02T07:55:01;99752.78;;;18.17;54.50
27729;BME280;15126;42.186;24.340;2022-11-02T07:57:30;99744.59;;;18.28;54.61
27729;BME280;15126;42.186;24.340;2022-11-02T07:59:56;99739.56;;;18.41;54.18
27729;BME280;15126;42.186;24.340;2022-11-02T08:02:23;99726.06;;;18.45;54.12
27729;BME280;15126;42.186;24.340;2022-11-02T08:04:50;99735.31;;;18.64;54.06
27729;BME280;15126;42.186;24.340;2022-11-02T08:07:17;99732.56;;;18.78;54.13
27729;BME280;15126;42.186;24.340;2022-11-02T08:09:43;99721.22;;;18.96;52.82
27729;BME280;15126;42.186;24.340;2022-11-02T08:12:10;99715.03;;;19.07;49.91
27729;BME280;15126;42.186;24.340;2022-11-02T08:14:38;99718.44;;;19.11;51.83
27729;BME280;15126;42.186;24.340;2022-11-02T08:17:05;99720.16;;;19.18;50.91
27729;BME280;15126;42.186;24.340;2022-11-02T08:19:32;99718.16;;;19.42;51.63
27729;BME280;15126;42.186;24.340;2022-11-02T08:21:58;99696.06;;;19.55;50.74
27729;BME280;15126;42.186;24.340;2022-11-02T08:24:25;99696.13;;;19.70;50.10
27729;BME280;15126;42.186;24.340;2022-11-02T08:26:52;99694.28;;;19.81;49.99
27729;BME280;15126;42.186;24.340;2022-11-02T08:29:19;99694.53;;;20.07;50.12
27729;BME280;15126;42.186;24.340;2022-11-02T08:31:47;99693.94;;;20.17;49.84
27729;BME280;15126;42.186;24.340;2022-11-02T08:34:14;99677.75;;;20.18;48.57
27729;BME280;15126;42.186;24.340;2022-11-02T08:36:41;99690.56;;;20.43;48.68
27729;BME280;15126;42.186;24.340;2022-11-02T08:39:08;99686.94;;;20.57;46.16
27729;BME280;15126;42.186;24.340;2022-11-02T08:41:35;99686.44;;;20.73;47.43
27729;BME280;15126;42.186;24.340;2022-11-02T08:44:02;99690.44;;;20.81;46.96
27729;BME280;15126;42.186;24.340;2022-11-02T08:46:29;99677.88;;;21.02;47.06
27729;BME280;15126;42.186;24.340;2022-11-02T08:48:57;99676.78;;;21.14;46.86
27729;BME280;15126;42.186;24.340;2022-11-02T08:51:24;99678.06;;;21.33;47.11
27729;BME280;15126;42.186;24.340;2022-11-02T08:53:50;99674.19;;;21.51;45.88
27729;BME280;15126;42.186;24.340;2022-11-02T08:56:17;99664.81;;;21.65;45.23
27729;BME280;15126;42.186;24.340;2022-11-02T08:58:44;99665.75;;;21.82;43.68
27729;BME280;15126;42.186;24.340;2022-11-02T09:01:11;99681.19;;;21.96;43.05
27729;BME280;15126;42.186;24.340;2022-11-02T09:03:37;99672.28;;;22.09;44.08
27729;BME280;15126;42.186;24.340;2022-11-02T09:06:06;99668.94;;;22.10;42.96
27729;BME280;15126;42.186;24.340;2022-11-02T09:08:33;99667.41;;;22.09;43.29
27729;BME280;15126;42.186;24.340;2022-11-02T09:11:01;99653.69;;;22.33;42.16
27729;BME280;15126;42.186;24.340;2022-11-02T09:13:28;99648.09;;;22.44;44.16
27729;BME280;15126;42.186;24.340;2022-11-02T09:15:56;99635.25;;;22.54;42.01
27729;BME280;15126;42.186;24.340;2022-11-02T09:18:24;99646.03;;;22.76;40.91
27729;BME280;15126;42.186;24.340;2022-11-02T09:20:51;99648.75;;;22.91;40.56
27729;BME280;15126;42.186;24.340;2022-11-02T09:23:19;99639.22;;;23.05;40.32
27729;BME280;15126;42.186;24.340;2022-11-02T09:25:47;99622.72;;;23.09;39.32
27729;BME280;15126;42.186;24.340;2022-11-02T09:28:14;99632.91;;;23.32;38.98
27729;BME280;15126;42.186;24.340;2022-11-02T09:30:41;99627.59;;;23.45;38.27
27729;BME280;15126;42.186;24.340;2022-11-02T09:33:08;99629.19;;;23.63;39.03
27729;BME280;15126;42.186;24.340;2022-11-02T09:35:37;99618.88;;;23.77;38.93
27729;BME280;15126;42.186;24.340;2022-11-02T09:38:04;99610.34;;;23.88;37.58
27729;BME280;15126;42.186;24.340;2022-11-02T09:40:36;99607.28;;;23.97;36.54
27729;BME280;15126;42.186;24.340;2022-11-02T09:43:11;99607.81;;;24.12;37.20
27729;BME280;15126;42.186;24.340;2022-11-02T09:45:50;99594.09;;;24.27;36.33
27729;BME280;15126;42.186;24.340;2022-11-02T09:48:22;99593.59;;;24.40;37.72
27729;BME280;15126;42.186;24.340;2022-11-02T09:50:55;99592.03;;;24.39;36.17
27729;BME280;15126;42.186;24.340;2022-11-02T09:53:28;99587.63;;;24.43;36.51
27729;BME280;15126;42.186;24.340;2022-11-02T09:56:00;99582.66;;;24.55;35.23
27729;BME280;15126;42.186;24.340;2022-11-02T09:58:34;99583.16;;;24.75;35.45
27729;BME280;15126;42.186;24.340;2022-11-02T10:01:20;99585.50;;;24.88;35.47
27729;BME280;15126;42.186;24.340;2022-11-02T10:04:04;99576.38;;;24.95;36.58
27729;BME280;15126;42.186;24.340;2022-11-02T10:06:40;99569.13;;;25.00;34.84
27729;BME280;15126;42.186;24.340;2022-11-02T10:09:15;99565.16;;;25.19;33.57
27729;BME280;15126;42.186;24.340;2022-11-02T10:11:52;99566.16;;;25.27;34.07
27729;BME280;15126;42.186;24.340;2022-11-02T10:14:24;99548.47;;;25.34;34.25
27729;BME280;15126;42.186;24.340;2022-11-02T10:17:08;99555.97;;;25.43;32.53
27729;BME280;15126;42.186;24.340;2022-11-02T10:19:39;99554.91;;;25.52;34.21
27729;BME280;15126;42.186;24.340;2022-11-02T10:22:09;99554.81;;;25.68;33.72
27729;BME280;15126;42.186;24.340;2022-11-02T10:24:40;99547.22;;;25.76;32.67
27729;BME280;15126;42.186;24.340;2022-11-02T10:27:14;99551.47;;;25.99;32.21
27729;BME280;15126;42.186;24.340;2022-11-02T10:29:46;99536.13;;;26.02;32.01
27729;BME280;15126;42.186;24.340;2022-11-02T10:32:15;99543.03;;;26.13;31.78
27729;BME280;15126;42.186;24.340;2022-11-02T10:34:43;99536.00;;;26.19;30.87
27729;BME280;15126;42.186;24.340;2022-11-02T10:37:23;99528.41;;;26.27;30.20
27729;BME280;15126;42.186;24.340;2022-11-02T10:39:58;99527.38;;;26.25;31.90
27729;BME280;15126;42.186;24.340;2022-11-02T10:42:54;99521.25;;;26.39;31.29
27729;BME280;15126;42.186;24.340;2022-11-02T10:45:44;99525.63;;;26.46;30.73
27729;BME280;15126;42.186;24.340;2022-11-02T10:48:25;99522.97;;;26.48;30.58
27729;BME280;15126;42.186;24.340;2022-11-02T10:50:59;99507.56;;;26.56;30.47
27729;BME280;15126;42.186;24.340;2022-11-02T10:53:33;99507.84;;;26.77;30.59
27729;BME280;15126;42.186;24.340;2022-11-02T10:56:06;99501.41;;;26.71;30.04
27729;BME280;15126;42.186;24.340;2022-11-02T10:58:39;99496.53;;;26.90;29.69
27729;BME280;15126;42.186;24.340;2022-11-02T11:01:10;99483.53;;;26.89;30.46
27729;BME280;15126;42.186;24.340;2022-11-02T11:03:52;99490.19;;;26.97;30.06
27729;BME280;15126;42.186;24.340;2022-11-02T11:06:20;99493.13;;;27.10;29.59
27729;BME280;15126;42.186;24.340;2022-11-02T11:08:48;99488.75;;;27.09;28.81
27729;BME280;15126;42.186;24.340;2022-11-02T11:11:20;99481.63;;;27.16;28.65
27729;BME280;15126;42.186;24.340;2022-11-02T11:13:55;99474.44;;;27.28;27.89
27729;BME280;15126;42.186;24.340;2022-11-02T11:16:34;99473.25;;;27.37;28.92
27729;BME280;15126;42.186;24.340;2022-11-02T11:19:13;99470.81;;;27.46;27.68
27729;BME280;15126;42.186;24.340;2022-11-02T11:21:43;99476.44;;;27.52;28.53
27729;BME280;15126;42.186;24.340;2022-11-02T11:24:18;99459.25;;;27.33;28.69
27729;BME280;15126;42.186;24.340;2022-11-02T11:26:46;99465.38;;;27.43;28.62
27729;BME280;15126;42.186;24.340;2022-11-02T11:29:29;99469.63;;;27.55;26.97
27729;BME280;15126;42.186;24.340;2022-11-02T11:31:56;99463.50;;;27.45;27.16
27729;BME280;15126;42.186;24.340;2022-11-02T11:34:24;99462.19;;;27.46;27.41
27729;BME280;15126;42.186;24.340;2022-11-02T11:36:54;99446.69;;;27.55;26.04
27729;BME280;15126;42.186;24.340;2022-11-02T11:39:30;99458.00;;;27.66;26.98
27729;BME280;15126;42.186;24.340;2022-11-02T11:41:58;99457.81;;;27.77;26.88
27729;BME280;15126;42.186;24.340;2022-11-02T11:44:27;99455.84;;;27.85;26.23
27729;BME280;15126;42.186;24.340;2022-11-02T11:46:56;99443.28;;;27.88;26.12
27729;BME280;15126;42.186;24.340;2022-11-02T11:49:26;99455.59;;;27.83;26.91
27729;BME280;15126;42.186;24.340;2022-11-02T11:51:56;99451.22;;;27.82;26.84
27729;BME280;15126;42.186;24.340;2022-11-02T11:54:24;99438.56;;;27.91;26.02
27729;BME280;15126;42.186;24.340;2022-11-02T11:56:54;99445.38;;;27.88;25.66
27729;BME280;15126;42.186;24.340;2022-11-02T11:59:30;99445.56;;;27.76;25.61
27729;BME280;15126;42.186;24.340;2022-11-02T12:02:20;99439.06;;;27.76;26.33
27729;BME280;15126;42.186;24.340;2022-11-02T12:04:48;99432.88;;;27.72;26.51
27729;BME280;15126;42.186;24.340;2022-11-02T12:07:33;99443.56;;;27.71;25.60
27729;BME280;15126;42.186;24.340;2022-11-02T12:10:22;99428.41;;;27.58;25.42
27729;BME280;15126;42.186;24.340;2022-11-02T12:13:07;99433.97;;;27.69;24.75
27729;BME280;15126;42.186;24.340;2022-11-02T12:15:47;99423.13;;;27.62;25.43
27729;BME280;15126;42.186;24.340;2022-11-02T12:18:32;99422.91;;;27.60;24.29
27729;BME280;15126;42.186;24.340;2022-11-02T12:21:29;99426.78;;;27.62;25.74
27729;BME280;15126;42.186;24.340;2022-11-02T12:24:26;99428.72;;;27.54;25.26
27729;BME280;15126;42.186;24.340;2022-11-02T12:27:06;99421.09;;;27.44;25.18
27729;BME280;15126;42.186;24.340;2022-11-02T12:29:51;99424.78;;;27.39;25.12
27729;BME280;15126;42.186;24.340;2022-11-02T12:32:35;99404.81;;;27.33;24.56
27729;BME280;15126;42.186;24.340;2022-11-02T12:35:18;99417.34;;;27.49;24.84
27729;BME280;15126;42.186;24.340;2022-11-02T12:38:02;99418.34;;;27.33;26.88
27729;BME280;15126;42.186;24.340;2022-11-02T12:40:43;99416.78;;;27.32;24.71
27729;BME280;15126;42.186;24.340;2022-11-02T12:43:23;99400.41;;;27.13;23.54
27729;BME280;15126;42.186;24.340;2022-11-02T12:46:00;99407.00;;;27.08;23.21
27729;BME280;15126;42.186;24.340;2022-11-02T12:48:45;99401.81;;;27.07;24.14
27729;BME280;15126;42.186;24.340;2022-11-02T12:51:17;99409.09;;;27.08;23.82
27729;BME280;15126;42.186;24.340;2022-11-02T12:53:48;99401.06;;;27.06;24.03
27729;BME280;15126;42.186;24.340;2022-11-02T12:56:20;99394.31;;;27.04;24.36
27729;BME280;15126;42.186;24.340;2022-11-02T12:58:48;99395.16;;;26.99;23.75
27729;BME280;15126;42.186;24.340;2022-11-02T13:01:21;99404.59;;;26.94;24.37
27729;BME280;15126;42.186;24.340;2022-11-02T13:03:55;99400.56;;;26.84;23.04
27729;BME280;15126;42.186;24.340;2022-11-02T13:06:29;99398.00;;;26.80;23.77
27729;BME280;15126;42.186;24.340;2022-11-02T13:09:01;99397.72;;;26.84;23.30